sensor_id;sensor_type;location;lat;lon;timestamp;pressure;altitude;pressure_sealevel;temperature;humidity
76603;BME280;65075;48.390;17.598;2023-09-30T00:01:58;100230.56;;;18.77;57.79
76603;BME280;65075;48.390;17.598;2023-09-30T00:04:25;100239.25;;;18.71;56.59
76603;BME280;65075;48.390;17.598;2023-09-30T00:06:53;100234.47;;;17.98;59.09
76603;BME280;65075;48.390;17.598;2023-09-30T00:09:19;100223.50;;;18.25;58.40
76603;BME280;65075;48.390;17.598;2023-09-30T00:11:45;100239.59;;;17.72;59.87
76603;BME280;65075;48.390;17.598;2023-09-30T00:14:11;100220.72;;;15.27;66.88
76603;BME280;65075;48.390;17.598;2023-09-30T00:17:32;100219.78;;;15.86;66.48
76603;BME280;65075;48.390;17.598;2023-09-30T00:20:15;100219.72;;;16.96;63.08
76603;BME280;65075;48.390;17.598;2023-09-30T00:22:41;100216.78;;;17.48;61.08
76603;BME280;65075;48.390;17.598;2023-09-30T00:25:07;100211.28;;;18.72;56.32
76603;BME280;65075;48.390;17.598;2023-09-30T00:27:34;100203.84;;;18.13;57.77
76603;BME280;65075;48.390;17.598;2023-09-30T00:30:04;100206.00;;;16.43;63.40
76603;BME280;65075;48.390;17.598;2023-09-30T00:32:35;100193.94;;;14.99;69.53
76603;BME280;65075;48.390;17.598;2023-09-30T00:35:10;100196.38;;;14.52;71.44
76603;BME280;65075;48.390;17.598;2023-09-30T00:37:38;100190.38;;;15.48;68.75
76603;BME280;65075;48.390;17.598;2023-09-30T00:40:08;100185.06;;;15.90;67.39
76603;BME280;65075;48.390;17.598;2023-09-30T00:42:55;100184.97;;;15.71;66.63
76603;BME280;65075;48.390;17.598;2023-09-30T00:45:22;100193.59;;;16.17;65.44
76603;BME280;65075;48.390;17.598;2023-09-30T00:47:49;100184.41;;;14.86;69.94
76603;BME280;65075;48.390;17.598;2023-09-30T00:50:29;100185.19;;;15.41;69.48
76603;BME280;65075;48.390;17.598;2023-09-30T00:52:57;100162.28;;;17.40;62.55
76603;BME280;65075;48.390;17.598;2023-09-30T00:55:23;100171.25;;;16.71;63.75
76603;BME280;65075;48.390;17.598;2023-09-30T00:57:50;100189.69;;;17.50;61.21
76603;BME280;65075;48.390;17.598;2023-09-30T01:00:17;100201.38;;;18.12;58.41
76603;BME280;65075;48.390;17.598;2023-09-30T01:02:45;100193.00;;;18.17;57.89
76603;BME280;65075;48.390;17.598;2023-09-30T01:05:11;100204.00;;;17.52;60.54
76603;BME280;65075;48.390;17.598;2023-09-30T01:07:37;100200.81;;;18.42;57.24
76603;BME280;65075;48.390;17.598;2023-09-30T01:10:04;100200.66;;;18.06;57.73
76603;BME280;65075;48.390;17.598;2023-09-30T01:12:30;100206.13;;;17.23;61.10
76603;BME280;65075;48.390;17.598;2023-09-30T01:14:58;100191.13;;;18.12;57.84
76603;BME280;65075;48.390;17.598;2023-09-30T01:17:30;100196.81;;;17.89;59.23
76603;BME280;65075;48.390;17.598;2023-09-30T01:19:57;100207.09;;;18.15;58.11
76603;BME280;65075;48.390;17.598;2023-09-30T01:22:28;100205.81;;;17.81;59.42
76603;BME280;65075;48.390;17.598;2023-09-30T01:24:58;100204.91;;;17.66;59.87
76603;BME280;65075;48.390;17.598;2023-09-30T01:27:24;100195.69;;;17.57;59.34
76603;BME280;65075;48.390;17.598;2023-09-30T01:29:50;100183.81;;;17.38;59.74
76603;BME280;65075;48.390;17.598;2023-09-30T01:32:17;100187.09;;;18.37;57.04
76603;BME280;65075;48.390;17.598;2023-09-30T01:34:42;100177.38;;;19.43;52.90
76603;BME280;65075;48.390;17.598;2023-09-30T01:37:08;100219.88;;;17.98;58.28
76603;BME280;65075;48.390;17.598;2023-09-30T01:39:33;100182.06;;;18.25;56.66
76603;BME280;65075;48.390;17.598;2023-09-30T01:42:00;100199.72;;;18.57;55.27
76603;BME280;65075;48.390;17.598;2023-09-30T01:44:25;100216.56;;;18.28;57.54
76603;BME280;65075;48.390;17.598;2023-09-30T01:46:51;100214.56;;;17.69;59.21
76603;BME280;65075;48.390;17.598;2023-09-30T01:49:17;100223.00;;;17.91;58.36
76603;BME280;65075;48.390;17.598;2023-09-30T01:51:45;100216.41;;;17.73;59.11
76603;BME280;65075;48.390;17.598;2023-09-30T01:54:13;100215.06;;;18.03;58.34
76603;BME280;65075;48.390;17.598;2023-09-30T01:56:39;100214.38;;;19.34;53.16
76603;BME280;65075;48.390;17.598;2023-09-30T01:59:04;100221.59;;;17.94;58.08
76603;BME280;65075;48.390;17.598;2023-09-30T02:01:30;100212.84;;;18.19;56.59
76603;BME280;65075;48.390;17.598;2023-09-30T02:03:55;100189.56;;;18.52;55.56
76603;BME280;65075;48.390;17.598;2023-09-30T02:06:21;100223.28;;;18.22;56.86
76603;BME280;65075;48.390;17.598;2023-09-30T02:08:46;100214.25;;;18.62;55.97
76603;BME280;65075;48.390;17.598;2023-09-30T02:11:12;100213.78;;;14.91;67.38
76603;BME280;65075;48.390;17.598;2023-09-30T02:13:59;100186.41;;;14.71;68.88
76603;BME280;65075;48.390;17.598;2023-09-30T02:16:35;100204.91;;;15.09;68.77
76603;BME280;65075;48.390;17.598;2023-09-30T02:19:06;100200.56;;;14.93;68.50
76603;BME280;65075;48.390;17.598;2023-09-30T02:21:40;100205.06;;;16.00;64.97
76603;BME280;65075;48.390;17.598;2023-09-30T02:24:21;100222.44;;;16.77;62.82
76603;BME280;65075;48.390;17.598;2023-09-30T02:26:48;100192.41;;;18.47;57.17
76603;BME280;65075;48.390;17.598;2023-09-30T02:29:15;100206.16;;;18.52;57.26
76603;BME280;65075;48.390;17.598;2023-09-30T02:31:40;100211.34;;;17.62;58.78
76603;BME280;65075;48.390;17.598;2023-09-30T02:34:29;100199.97;;;15.84;64.73
76603;BME280;65075;48.390;17.598;2023-09-30T02:36:57;100210.97;;;15.01;68.11
76603;BME280;65075;48.390;17.598;2023-09-30T02:39:33;100208.09;;;14.72;69.90
76603;BME280;65075;48.390;17.598;2023-09-30T02:42:08;100204.53;;;14.72;70.22
76603;BME280;65075;48.390;17.598;2023-09-30T02:44:35;100205.38;;;14.62;70.76
76603;BME280;65075;48.390;17.598;2023-09-30T02:47:08;100211.50;;;16.72;63.30
76603;BME280;65075;48.390;17.598;2023-09-30T02:50:06;100200.94;;;17.91;58.92
76603;BME280;65075;48.390;17.598;2023-09-30T02:52:43;100206.63;;;16.35;63.20
76603;BME280;65075;48.390;17.598;2023-09-30T02:55:13;100195.22;;;15.17;67.54
76603;BME280;65075;48.390;17.598;2023-09-30T02:57:43;100201.66;;;15.80;66.33
76603;BME280;65075;48.390;17.598;2023-09-30T03:00:40;100212.88;;;17.31;61.79
76603;BME280;65075;48.390;17.598;2023-09-30T03:03:35;100207.19;;;18.56;57.29
76603;BME280;65075;48.390;17.598;2023-09-30T03:06:12;100186.50;;;18.40;56.25
76603;BME280;65075;48.390;17.598;2023-09-30T03:08:39;100192.22;;;19.12;55.09
76603;BME280;65075;48.390;17.598;2023-09-30T03:11:06;100208.59;;;18.40;56.97
76603;BME280;65075;48.390;17.598;2023-09-30T03:13:33;100203.47;;;16.94;61.95
76603;BME280;65075;48.390;17.598;2023-09-30T03:15:58;100213.25;;;17.24;62.17
76603;BME280;65075;48.390;17.598;2023-09-30T03:18:27;100227.44;;;17.36;60.95
76603;BME280;65075;48.390;17.598;2023-09-30T03:21:01;100217.38;;;18.28;57.75
76603;BME280;65075;48.390;17.598;2023-09-30T03:23:33;100210.84;;;19.56;54.87
76603;BME280;65075;48.390;17.598;2023-09-30T03:25:59;100199.81;;;18.93;54.92
76603;BME280;65075;48.390;17.598;2023-09-30T03:28:26;100230.03;;;18.75;55.74
76603;BME280;65075;48.390;17.598;2023-09-30T03:30:52;100227.81;;;19.27;54.97
76603;BME280;65075;48.390;17.598;2023-09-30T03:33:18;100211.69;;;19.78;52.61
76603;BME280;65075;48.390;17.598;2023-09-30T03:35:43;100167.47;;;18.52;54.72
76603;BME280;65075;48.390;17.598;2023-09-30T03:38:13;100229.78;;;20.07;53.11
76603;BME280;65075;48.390;17.598;2023-09-30T03:40:40;100219.09;;;20.14;51.24
76603;BME280;65075;48.390;17.598;2023-09-30T03:43:16;100218.56;;;18.68;55.68
76603;BME280;65075;48.390;17.598;2023-09-30T03:45:41;100210.38;;;18.63;55.77
76603;BME280;65075;48.390;17.598;2023-09-30T03:48:08;100214.72;;;19.19;54.41
76603;BME280;65075;48.390;17.598;2023-09-30T03:50:35;100213.25;;;19.49;53.46
76603;BME280;65075;48.390;17.598;2023-09-30T03:53:02;100206.88;;;19.48;52.96
76603;BME280;65075;48.390;17.598;2023-09-30T03:55:28;100172.72;;;18.08;57.51
76603;BME280;65075;48.390;17.598;2023-09-30T03:57:55;100201.50;;;16.76;61.53
76603;BME280;65075;48.390;17.598;2023-09-30T04:00:21;100177.34;;;15.92;64.47
76603;BME280;65075;48.390;17.598;2023-09-30T04:02:53;100191.28;;;17.00;62.50
76603;BME280;65075;48.390;17.598;2023-09-30T04:05:28;100205.00;;;16.58;63.78
76603;BME280;65075;48.390;17.598;2023-09-30T04:08:02;100182.28;;;15.90;66.85
76603;BME280;65075;48.390;17.598;2023-09-30T04:10:28;100209.75;;;18.07;59.41
76603;BME280;65075;48.390;17.598;2023-09-30T04:12:55;100171.84;;;18.26;57.71
76603;BME280;65075;48.390;17.598;2023-09-30T04:15:22;100173.56;;;16.35;63.44
76603;BME280;65075;48.390;17.598;2023-09-30T04:17:51;100208.78;;;18.30;58.20
76603;BME280;65075;48.390;17.598;2023-09-30T04:20:18;100221.84;;;18.70;57.46
76603;BME280;65075;48.390;17.598;2023-09-30T04:22:50;100237.25;;;19.97;52.95
76603;BME280;65075;48.390;17.598;2023-09-30T04:25:23;100243.66;;;19.62;53.54
76603;BME280;65075;48.390;17.598;2023-09-30T04:27:53;100228.78;;;18.81;55.70
76603;BME280;65075;48.390;17.598;2023-09-30T04:30:24;100257.88;;;19.20;55.58
76603;BME280;65075;48.390;17.598;2023-09-30T04:32:50;100244.47;;;18.72;56.49
76603;BME280;65075;48.390;17.598;2023-09-30T04:35:16;100250.22;;;19.03;55.92
76603;BME280;65075;48.390;17.598;2023-09-30T04:37:43;100256.56;;;18.76;57.06
76603;BME280;65075;48.390;17.598;2023-09-30T04:40:10;100255.78;;;16.47;63.53
76603;BME280;65075;48.390;17.598;2023-09-30T04:42:42;100249.06;;;16.06;66.11
76603;BME280;65075;48.390;17.598;2023-09-30T04:45:10;100227.56;;;15.74;66.60
76603;BME280;65075;48.390;17.598;2023-09-30T04:47:36;100222.69;;;16.99;63.70
76603;BME280;65075;48.390;17.598;2023-09-30T04:50:03;100243.91;;;16.51;64.91
76603;BME280;65075;48.390;17.598;2023-09-30T04:52:34;100263.56;;;19.37;56.52
76603;BME280;65075;48.390;17.598;2023-09-30T04:55:03;100261.41;;;16.08;66.29
76603;BME280;65075;48.390;17.598;2023-09-30T04:58:10;100252.28;;;18.38;59.07
76603;BME280;65075;48.390;17.598;2023-09-30T05:00:46;100254.63;;;18.31;60.09
76603;BME280;65075;48.390;17.598;2023-09-30T05:03:41;100261.94;;;17.15;62.34
76603;BME280;65075;48.390;17.598;2023-09-30T05:06:17;100253.34;;;16.98;63.57
76603;BME280;65075;48.390;17.598;2023-09-30T05:09:28;100256.66;;;15.85;68.80
76603;BME280;65075;48.390;17.598;2023-09-30T05:11:56;100271.50;;;16.99;64.50
76603;BME280;65075;48.390;17.598;2023-09-30T05:14:22;100256.38;;;17.95;61.24
76603;BME280;65075;48.390;17.598;2023-09-30T05:16:50;100274.56;;;18.88;59.41
76603;BME280;65075;48.390;17.598;2023-09-30T05:19:18;100266.19;;;18.79;59.14
76603;BME280;65075;48.390;17.598;2023-09-30T05:22:04;100280.31;;;19.05;57.61
76603;BME280;65075;48.390;17.598;2023-09-30T05:24:31;100279.06;;;18.70;58.38
76603;BME280;65075;48.390;17.598;2023-09-30T05:26:56;100283.16;;;17.94;60.73
76603;BME280;65075;48.390;17.598;2023-09-30T05:29:22;100295.50;;;20.06;55.46
76603;BME280;65075;48.390;17.598;2023-09-30T05:31:49;100302.00;;;19.66;56.83
76603;BME280;65075;48.390;17.598;2023-09-30T05:34:14;100294.97;;;19.46;56.76
76603;BME280;65075;48.390;17.598;2023-09-30T05:36:40;100303.28;;;20.04;56.04
76603;BME280;65075;48.390;17.598;2023-09-30T05:39:05;100299.56;;;19.37;56.64
76603;BME280;65075;48.390;17.598;2023-09-30T05:41:31;100313.59;;;18.40;60.01
76603;BME280;65075;48.390;17.598;2023-09-30T05:43:57;100308.72;;;16.15;69.10
76603;BME280;65075;48.390;17.598;2023-09-30T05:46:25;100326.81;;;17.73;64.45
76603;BME280;65075;48.390;17.598;2023-09-30T05:48:50;100313.34;;;18.55;61.10
76603;BME280;65075;48.390;17.598;2023-09-30T05:51:18;100303.28;;;16.05;69.55
76603;BME280;65075;48.390;17.598;2023-09-30T05:53:45;100320.63;;;18.00;63.85
76603;BME280;65075;48.390;17.598;2023-09-30T05:56:13;100318.00;;;17.29;63.27
76603;BME280;65075;48.390;17.598;2023-09-30T05:58:41;100311.38;;;16.25;69.20
76603;BME280;65075;48.390;17.598;2023-09-30T06:01:08;100312.63;;;16.72;67.24
76603;BME280;65075;48.390;17.598;2023-09-30T06:03:39;100300.69;;;19.85;55.87
76603;BME280;65075;48.390;17.598;2023-09-30T06:06:14;100328.97;;;17.34;64.08
76603;BME280;65075;48.390;17.598;2023-09-30T06:09:01;100334.75;;;17.14;66.15
76603;BME280;65075;48.390;17.598;2023-09-30T06:11:28;100331.81;;;17.29;65.31
76603;BME280;65075;48.390;17.598;2023-09-30T06:14:01;100332.78;;;16.33;69.65
76603;BME280;65075;48.390;17.598;2023-09-30T06:16:51;100301.97;;;17.31;67.15
76603;BME280;65075;48.390;17.598;2023-09-30T06:19:49;100331.72;;;17.34;65.19
76603;BME280;65075;48.390;17.598;2023-09-30T06:22:17;100330.41;;;16.50;68.54
76603;BME280;65075;48.390;17.598;2023-09-30T06:24:47;100322.09;;;18.90;61.54
76603;BME280;65075;48.390;17.598;2023-09-30T06:27:15;100318.44;;;19.84;57.18
76603;BME280;65075;48.390;17.598;2023-09-30T06:29:42;100364.91;;;19.87;57.12
76603;BME280;65075;48.390;17.598;2023-09-30T06:32:12;100347.44;;;18.64;60.36
76603;BME280;65075;48.390;17.598;2023-09-30T06:34:42;100342.38;;;16.70;68.40
76603;BME280;65075;48.390;17.598;2023-09-30T06:37:09;100344.09;;;18.81;61.82
76603;BME280;65075;48.390;17.598;2023-09-30T06:39:35;100343.81;;;17.81;63.38
76603;BME280;65075;48.390;17.598;2023-09-30T06:42:01;100326.41;;;18.96;60.60
76603;BME280;65075;48.390;17.598;2023-09-30T06:44:28;100345.16;;;19.53;57.96
76603;BME280;65075;48.390;17.598;2023-09-30T06:46:57;100317.78;;;19.24;57.39
76603;BME280;65075;48.390;17.598;2023-09-30T06:49:24;100369.47;;;20.06;56.94
76603;BME280;65075;48.390;17.598;2023-09-30T06:51:51;100353.09;;;21.15;52.94
76603;BME280;65075;48.390;17.598;2023-09-30T06:54:18;100373.81;;;20.34;55.33
76603;BME280;65075;48.390;17.598;2023-09-30T06:56:45;100369.00;;;21.23;54.68
76603;BME280;65075;48.390;17.598;2023-09-30T06:59:12;100363.19;;;17.76;64.99
76603;BME280;65075;48.390;17.598;2023-09-30T07:01:39;100377.00;;;18.13;62.75
76603;BME280;65075;48.390;17.598;2023-09-30T07:04:06;100357.19;;;18.43;61.24
76603;BME280;65075;48.390;17.598;2023-09-30T07:06:36;100366.81;;;17.95;63.66
76603;BME280;65075;48.390;17.598;2023-09-30T07:09:03;100362.00;;;18.38;62.98
76603;BME280;65075;48.390;17.598;2023-09-30T07:11:30;100359.09;;;20.11;57.64
76603;BME280;65075;48.390;17.598;2023-09-30T07:14:01;100342.22;;;20.43;55.91
76603;BME280;65075;48.390;17.598;2023-09-30T07:16:27;100374.31;;;19.86;57.11
76603;BME280;65075;48.390;17.598;2023-09-30T07:18:54;100378.41;;;20.03;58.13
76603;BME280;65075;48.390;17.598;2023-09-30T07:21:21;100361.34;;;18.92;62.52
76603;BME280;65075;48.390;17.598;2023-09-30T07:23:48;100373.22;;;20.98;55.57
76603;BME280;65075;48.390;17.598;2023-09-30T07:26:15;100366.91;;;18.59;61.03
76603;BME280;65075;48.390;17.598;2023-09-30T07:28:41;100370.84;;;19.94;57.77
76603;BME280;65075;48.390;17.598;2023-09-30T07:31:08;100379.44;;;19.93;56.78
76603;BME280;65075;48.390;17.598;2023-09-30T07:33:35;100388.50;;;22.74;49.75
76603;BME280;65075;48.390;17.598;2023-09-30T07:36:02;100386.94;;;18.51;61.32
76603;BME280;65075;48.390;17.598;2023-09-30T07:38:29;100386.72;;;21.14;54.82
76603;BME280;65075;48.390;17.598;2023-09-30T07:40:56;100383.50;;;20.09;55.09
76603;BME280;65075;48.390;17.598;2023-09-30T07:43:21;100387.44;;;22.96;48.94
76603;BME280;65075;48.390;17.598;2023-09-30T07:45:48;100387.28;;;22.92;48.71
76603;BME280;65075;48.390;17.598;2023-09-30T07:48:15;100389.69;;;20.06;54.99
76603;BME280;65075;48.390;17.598;2023-09-30T07:50:46;100380.81;;;20.31;54.83
76603;BME280;65075;48.390;17.598;2023-09-30T07:53:16;100379.59;;;19.61;57.55
76603;BME280;65075;48.390;17.598;2023-09-30T07:55:43;100363.06;;;21.64;51.61
76603;BME280;65075;48.390;17.598;2023-09-30T07:58:10;100381.75;;;22.58;51.06
76603;BME280;65075;48.390;17.598;2023-09-30T08:00:37;100374.44;;;21.37;53.79
76603;BME280;65075;48.390;17.598;2023-09-30T08:03:04;100392.22;;;22.61;49.68
76603;BME280;65075;48.390;17.598;2023-09-30T08:05:31;100382.72;;;20.97;54.18
76603;BME280;65075;48.390;17.598;2023-09-30T08:07:58;100384.91;;;21.09;54.57
76603;BME280;65075;48.390;17.598;2023-09-30T08:10:24;100393.84;;;20.53;57.01
76603;BME280;65075;48.390;17.598;2023-09-30T08:12:51;100371.22;;;21.69;53.70
76603;BME280;65075;48.390;17.598;2023-09-30T08:15:18;100384.41;;;22.29;50.79
76603;BME280;65075;48.390;17.598;2023-09-30T08:17:45;100379.31;;;24.70;44.30
76603;BME280;65075;48.390;17.598;2023-09-30T08:20:11;100388.63;;;21.44;51.42
76603;BME280;65075;48.390;17.598;2023-09-30T08:22:40;100390.22;;;23.04;48.31
76603;BME280;65075;48.390;17.598;2023-09-30T08:25:08;100383.63;;;23.55;48.66
76603;BME280;65075;48.390;17.598;2023-09-30T08:27:36;100374.69;;;24.00;46.48
76603;BME280;65075;48.390;17.598;2023-09-30T08:30:04;100370.69;;;26.29;42.04
76603;BME280;65075;48.390;17.598;2023-09-30T08:32:38;100372.84;;;24.24;47.65
76603;BME280;65075;48.390;17.598;2023-09-30T08:35:05;100380.72;;;20.67;56.08
76603;BME280;65075;48.390;17.598;2023-09-30T08:37:32;100392.09;;;22.57;51.97
76603;BME280;65075;48.390;17.598;2023-09-30T08:39:59;100384.38;;;23.93;49.59
76603;BME280;65075;48.390;17.598;2023-09-30T08:42:32;100381.25;;;25.47;46.82
76603;BME280;65075;48.390;17.598;2023-09-30T08:45:00;100333.16;;;24.72;46.96
76603;BME280;65075;48.390;17.598;2023-09-30T08:47:28;100386.94;;;25.26;47.24
76603;BME280;65075;48.390;17.598;2023-09-30T08:49:58;100387.06;;;26.82;43.12
76603;BME280;65075;48.390;17.598;2023-09-30T08:52:38;100391.31;;;27.85;40.75
76603;BME280;65075;48.390;17.598;2023-09-30T08:55:07;100393.28;;;28.01;40.95
76603;BME280;65075;48.390;17.598;2023-09-30T08:57:37;100386.81;;;29.12;37.99
76603;BME280;65075;48.390;17.598;2023-09-30T09:00:10;100392.63;;;28.80;38.19
76603;BME280;65075;48.390;17.598;2023-09-30T09:02:41;100390.81;;;27.33;42.74
76603;BME280;65075;48.390;17.598;2023-09-30T09:05:08;100378.19;;;26.00;45.64
76603;BME280;65075;48.390;17.598;2023-09-30T09:07:36;100370.03;;;29.38;37.50
76603;BME280;65075;48.390;17.598;2023-09-30T09:10:10;100384.84;;;29.35;39.91
76603;BME280;65075;48.390;17.598;2023-09-30T09:12:40;100387.75;;;28.97;39.56
76603;BME280;65075;48.390;17.598;2023-09-30T09:15:19;100383.91;;;28.28;43.03
76603;BME280;65075;48.390;17.598;2023-09-30T09:17:48;100370.09;;;28.19;42.05
76603;BME280;65075;48.390;17.598;2023-09-30T09:20:27;100381.72;;;29.40;39.91
76603;BME280;65075;48.390;17.598;2023-09-30T09:22:55;100374.59;;;30.91;38.52
76603;BME280;65075;48.390;17.598;2023-09-30T09:25:23;100365.69;;;30.82;37.05
76603;BME280;65075;48.390;17.598;2023-09-30T09:27:51;100373.56;;;31.03;36.87
76603;BME280;65075;48.390;17.598;2023-09-30T09:30:24;100363.16;;;30.40;39.03
76603;BME280;65075;48.390;17.598;2023-09-30T09:33:02;100369.28;;;29.41;40.92
76603;BME280;65075;48.390;17.598;2023-09-30T09:35:31;100367.94;;;28.89;41.00
76603;BME280;65075;48.390;17.598;2023-09-30T09:38:03;100368.09;;;28.20;42.96
76603;BME280;65075;48.390;17.598;2023-09-30T09:40:34;100362.19;;;28.82;41.61
76603;BME280;65075;48.390;17.598;2023-09-30T09:43:01;100348.88;;;27.52;43.91
76603;BME280;65075;48.390;17.598;2023-09-30T09:45:33;100357.63;;;27.04;46.25
76603;BME280;65075;48.390;17.598;2023-09-30T09:48:00;100360.34;;;27.00;45.52
76603;BME280;65075;48.390;17.598;2023-09-30T09:50:27;100363.44;;;25.88;48.34
76603;BME280;65075;48.390;17.598;2023-09-30T09:52:54;100368.59;;;26.26;47.65
76603;BME280;65075;48.390;17.598;2023-09-30T09:55:25;100375.78;;;26.39;47.24
76603;BME280;65075;48.390;17.598;2023-09-30T09:57:52;100375.75;;;25.26;49.70
76603;BME280;65075;48.390;17.598;2023-09-30T10:00:21;100382.03;;;25.11;50.09
76603;BME280;65075;48.390;17.598;2023-09-30T10:02:51;100383.06;;;24.74;51.19
76603;BME280;65075;48.390;17.598;2023-09-30T10:05:19;100379.84;;;26.41;47.01
76603;BME280;65075;48.390;17.598;2023-09-30T10:07:55;100383.88;;;25.07;50.65
76603;BME280;65075;48.390;17.598;2023-09-30T10:10:24;100377.69;;;24.69;51.85
76603;BME280;65075;48.390;17.598;2023-09-30T10:12:52;100378.16;;;25.48;50.15
76603;BME280;65075;48.390;17.598;2023-09-30T10:18:07;100388.44;;;24.79;52.49
76603;BME280;65075;48.390;17.598;2023-09-30T10:20:40;100385.06;;;24.53;52.18
76603;BME280;65075;48.390;17.598;2023-09-30T10:23:26;100388.16;;;24.72;52.19
76603;BME280;65075;48.390;17.598;2023-09-30T10:26:14;100382.34;;;24.85;51.34
76603;BME280;65075;48.390;17.598;2023-09-30T10:28:50;100379.50;;;25.30;50.81
76603;BME280;65075;48.390;17.598;2023-09-30T10:31:20;100384.34;;;24.97;52.46
76603;BME280;65075;48.390;17.598;2023-09-30T10:36:42;100383.28;;;24.07;54.26
76603;BME280;65075;48.390;17.598;2023-09-30T10:39:14;100394.50;;;24.27;54.14
76603;BME280;65075;48.390;17.598;2023-09-30T10:46:54;100381.25;;;25.23;51.16
76603;BME280;65075;48.390;17.598;2023-09-30T10:51:56;100392.66;;;26.02;49.83
76603;BME280;65075;48.390;17.598;2023-09-30T10:54:32;100395.09;;;26.04;49.94
76603;BME280;65075;48.390;17.598;2023-09-30T10:57:00;100371.81;;;25.27;51.40
76603;BME280;65075;48.390;17.598;2023-09-30T10:59:28;100388.59;;;25.51;51.00
76603;BME280;65075;48.390;17.598;2023-09-30T11:01:57;100406.28;;;25.31;51.58
76603;BME280;65075;48.390;17.598;2023-09-30T11:04:25;100378.06;;;24.46;53.97
76603;BME280;65075;48.390;17.598;2023-09-30T11:06:54;100399.25;;;24.47;53.23
76603;BME280;65075;48.390;17.598;2023-09-30T11:09:22;100399.31;;;24.72;52.93
76603;BME280;65075;48.390;17.598;2023-09-30T11:11:52;100401.63;;;23.87;54.85
76603;BME280;65075;48.390;17.598;2023-09-30T11:14:30;100405.88;;;23.93;56.31
76603;BME280;65075;48.390;17.598;2023-09-30T11:16:58;100401.06;;;23.44;57.04
76603;BME280;65075;48.390;17.598;2023-09-30T11:19:34;100392.25;;;23.91;55.18
76603;BME280;65075;48.390;17.598;2023-09-30T11:22:02;100401.38;;;23.80;56.40
76603;BME280;65075;48.390;17.598;2023-09-30T11:24:29;100397.91;;;24.33;54.61
76603;BME280;65075;48.390;17.598;2023-09-30T11:26:57;100382.44;;;24.35;54.03
76603;BME280;65075;48.390;17.598;2023-09-30T11:29:23;100403.97;;;23.85;56.49
76603;BME280;65075;48.390;17.598;2023-09-30T11:31:52;100399.53;;;23.55;56.87
76603;BME280;65075;48.390;17.598;2023-09-30T11:34:39;100377.75;;;24.27;55.01
76603;BME280;65075;48.390;17.598;2023-09-30T11:37:09;100380.72;;;25.66;51.86
76603;BME280;65075;48.390;17.598;2023-09-30T11:39:36;100369.47;;;25.29;51.91
76603;BME280;65075;48.390;17.598;2023-09-30T11:42:15;100386.13;;;25.98;50.25
76603;BME280;65075;48.390;17.598;2023-09-30T11:44:47;100347.56;;;24.95;52.02
76603;BME280;65075;48.390;17.598;2023-09-30T11:47:29;100401.84;;;24.11;55.10
76603;BME280;65075;48.390;17.598;2023-09-30T11:50:04;100385.63;;;24.46;53.38
76603;BME280;65075;48.390;17.598;2023-09-30T11:52:32;100361.72;;;24.24;53.93
76603;BME280;65075;48.390;17.598;2023-09-30T11:54:59;100349.69;;;24.03;54.58
76603;BME280;65075;48.390;17.598;2023-09-30T11:57:29;100389.78;;;23.69;55.62
76603;BME280;65075;48.390;17.598;2023-09-30T11:59:57;100359.50;;;24.09;54.35
76603;BME280;65075;48.390;17.598;2023-09-30T12:02:23;100362.66;;;24.28;53.14
76603;BME280;65075;48.390;17.598;2023-09-30T12:04:50;100370.97;;;24.16;54.79
76603;BME280;65075;48.390;17.598;2023-09-30T12:07:17;100332.63;;;23.84;54.43
76603;BME280;65075;48.390;17.598;2023-09-30T12:09:44;100330.09;;;24.98;51.59
76603;BME280;65075;48.390;17.598;2023-09-30T12:12:10;100352.22;;;24.91;51.28
76603;BME280;65075;48.390;17.598;2023-09-30T12:14:37;100320.81;;;25.30;51.20
76603;BME280;65075;48.390;17.598;2023-09-30T12:17:04;100366.56;;;25.86;49.87
76603;BME280;65075;48.390;17.598;2023-09-30T12:19:31;100356.78;;;25.08;50.21
76603;BME280;65075;48.390;17.598;2023-09-30T12:21:59;100376.69;;;25.30;51.07
76603;BME280;65075;48.390;17.598;2023-09-30T12:24:25;100347.19;;;24.84;51.19
76603;BME280;65075;48.390;17.598;2023-09-30T12:26:53;100356.09;;;24.78;51.03
76603;BME280;65075;48.390;17.598;2023-09-30T12:29:22;100381.59;;;24.56;52.68
76603;BME280;65075;48.390;17.598;2023-09-30T12:31:51;100387.53;;;24.54;51.90
76603;BME280;65075;48.390;17.598;2023-09-30T12:34:18;100383.22;;;25.34;51.35
76603;BME280;65075;48.390;17.598;2023-09-30T12:36:44;100351.69;;;24.77;51.25
76603;BME280;65075;48.390;17.598;2023-09-30T12:39:10;100346.00;;;24.53;51.19
76603;BME280;65075;48.390;17.598;2023-09-30T12:41:40;100361.38;;;24.59;51.41
76603;BME280;65075;48.390;17.598;2023-09-30T12:44:06;100380.34;;;25.55;50.14
76603;BME280;65075;48.390;17.598;2023-09-30T12:46:32;100363.63;;;24.98;50.95
76603;BME280;65075;48.390;17.598;2023-09-30T12:49:03;100380.50;;;24.07;53.65
76603;BME280;65075;48.390;17.598;2023-09-30T12:51:30;100339.16;;;24.29;51.72
76603;BME280;65075;48.390;17.598;2023-09-30T12:53:56;100367.41;;;24.28;51.50
76603;BME280;65075;48.390;17.598;2023-09-30T12:56:23;100352.00;;;24.01;52.54
76603;BME280;65075;48.390;17.598;2023-09-30T12:58:48;100361.72;;;24.24;52.09
76603;BME280;65075;48.390;17.598;2023-09-30T13:01:14;100380.38;;;24.03;52.58
76603;BME280;65075;48.390;17.598;2023-09-30T13:03:40;100358.97;;;24.36;51.52
76603;BME280;65075;48.390;17.598;2023-09-30T13:06:05;100379.06;;;23.80;52.73
76603;BME280;65075;48.390;17.598;2023-09-30T13:08:31;100324.75;;;24.07;52.88